createdAt,value
2018-02-22T18:43:07.610Z,11.30
2018-02-22T18:43:08.640Z,8.30
2018-02-22T18:43:09.682Z,8.20
2018-02-22T18:44:03.207Z,8.90
2018-02-22T18:44:04.760Z,10.20
2018-02-22T18:44:05.804Z,10.40
2018-02-22T18:44:06.900Z,10.50
2018-02-22T18:44:59.926Z,9.30
2018-02-22T18:45:02.053Z,11.80
2018-02-22T18:45:03.148Z,11.90
2018-02-22T18:45:03.705Z,11.70
2018-02-22T18:45:56.722Z,10.90
2018-02-22T18:45:57.791Z,8.80
2018-02-22T18:45:58.835Z,8.90
2018-02-22T18:45:59.933Z,8.80
2018-02-22T18:46:01.001Z,9.00
2018-02-22T18:46:02.034Z,8.90
2018-02-22T18:46:03.078Z,8.90
2018-02-22T18:46:04.174Z,9.00
2018-02-22T18:46:04.727Z,9.00
2018-02-22T18:46:05.764Z,9.00
2018-02-22T18:46:06.809Z,9.20
2018-02-22T18:46:07.942Z,9.30
2018-02-22T18:46:08.997Z,9.40
2018-02-22T18:46:10.089Z,9.70
2018-02-22T18:46:11.209Z,9.90
2018-02-22T18:46:11.740Z,10.50
2018-02-22T18:46:12.771Z,10.50
2018-02-22T18:46:13.761Z,10.40
2018-02-22T18:46:14.901Z,10.50
2018-02-22T18:46:16.013Z,10.30
2018-02-22T18:46:17.043Z,10.30
2018-02-22T18:46:18.173Z,10.40
2018-02-22T18:46:18.702Z,10.30
2018-02-22T18:46:19.769Z,10.40
2018-02-22T18:46:20.889Z,10.30
2018-02-22T18:46:21.949Z,10.30
2018-02-22T18:46:23.000Z,10.60
2018-02-22T18:46:24.093Z,10.70
2018-02-22T18:46:25.120Z,10.50
2018-02-22T18:46:25.686Z,10.40
2018-02-22T18:46:26.767Z,10.40
2018-02-22T18:46:27.853Z,10.60
2018-02-22T18:46:28.969Z,10.50
2018-02-22T18:46:30.017Z,10.20
2018-02-22T18:46:31.131Z,10.00
2018-02-22T18:46:31.684Z,10.00
2018-02-22T18:46:32.695Z,9.90
2018-02-22T18:46:33.770Z,10.00
2018-02-22T18:46:34.831Z,10.10
2018-02-22T18:46:35.873Z,10.40
2018-02-22T18:46:37.726Z,10.20
2018-02-22T18:46:38.755Z,10.30
2018-02-22T18:46:39.861Z,9.60
2018-02-22T18:46:40.976Z,9.50
2018-02-22T18:46:41.999Z,9.00
2018-02-22T18:46:43.049Z,8.90
2018-02-22T18:46:44.121Z,8.90
2018-02-22T18:46:44.640Z,8.90
2018-02-22T18:46:45.687Z,8.70
2018-02-22T18:46:46.742Z,8.60
2018-02-22T18:46:47.853Z,8.70
2018-02-22T18:46:48.922Z,8.70
2018-02-22T18:46:49.954Z,8.60
2018-02-22T18:46:51.064Z,8.70
2018-02-22T18:46:52.193Z,8.80
2018-02-22T18:46:52.704Z,8.80
2018-02-22T18:46:53.849Z,8.80
2018-02-22T18:46:54.935Z,8.90
2018-02-22T18:46:56.017Z,8.90
2018-02-22T18:46:57.135Z,8.90
2018-02-22T18:46:57.693Z,8.90
2018-02-22T18:46:58.819Z,8.90
2018-02-22T18:46:59.939Z,9.00
2018-02-22T18:47:00.989Z,8.90
2018-02-22T18:47:02.054Z,9.00
2018-02-22T18:47:03.142Z,9.10
2018-02-22T18:47:03.683Z,9.10
2018-02-22T18:47:04.749Z,9.20
2018-02-22T18:47:05.901Z,9.20
2018-02-22T18:47:06.979Z,9.20
2018-02-22T18:47:08.046Z,9.40
2018-02-22T18:47:09.134Z,9.50
2018-02-22T18:47:09.702Z,9.60
2018-02-22T18:47:10.811Z,9.70
2018-02-22T18:47:11.840Z,9.60
2018-02-22T18:47:12.969Z,9.70
2018-02-22T18:47:14.006Z,9.80
2018-02-22T18:47:15.124Z,9.80
2018-02-22T18:47:15.679Z,10.00
2018-02-22T18:47:16.779Z,10.00
2018-02-22T18:47:17.852Z,9.90
2018-02-22T18:47:18.969Z,10.00
2018-02-22T18:47:20.035Z,9.90
2018-02-22T18:47:21.131Z,9.80
2018-02-22T18:47:22.251Z,9.70
2018-02-22T18:47:22.799Z,9.60
2018-02-22T18:47:23.845Z,9.60
2018-02-22T18:47:24.881Z,9.70
2018-02-22T18:47:26.036Z,9.60
2018-02-22T18:47:27.069Z,9.50
2018-02-22T18:47:28.114Z,9.50
2018-02-22T18:47:29.209Z,9.40
2018-02-22T18:47:29.778Z,9.40
2018-02-22T18:47:30.834Z,9.50
2018-02-22T18:47:31.873Z,9.50
2018-02-22T18:47:32.973Z,9.40
2018-02-22T18:47:34.048Z,9.20
2018-02-22T18:47:35.136Z,9.10
2018-02-22T18:47:36.262Z,9.10
2018-02-22T18:47:36.814Z,9.20
2018-02-22T18:47:37.883Z,9.10
2018-02-22T18:47:38.973Z,9.00
2018-02-22T18:47:40.043Z,8.90
2018-02-22T18:47:41.133Z,8.90
2018-02-22T18:47:42.250Z,8.90
2018-02-22T18:47:42.779Z,8.80
2018-02-22T18:47:43.930Z,8.90
2018-02-22T18:47:45.067Z,8.80
2018-02-22T18:47:46.176Z,8.90
2018-02-22T18:47:46.724Z,9.00
2018-02-22T18:47:47.843Z,9.00
2018-02-22T18:47:48.884Z,9.00
2018-02-22T18:47:49.919Z,9.10
2018-02-22T18:47:51.053Z,9.10
2018-02-22T18:47:52.109Z,9.10
2018-02-22T18:47:53.142Z,9.00
2018-02-22T18:47:54.195Z,9.00
2018-02-22T18:47:54.719Z,9.10
2018-02-22T18:47:55.803Z,9.10
2018-02-22T18:47:56.829Z,9.10
2018-02-22T18:47:57.930Z,9.20
2018-02-22T18:47:59.003Z,9.30
2018-02-22T18:48:00.094Z,9.10
2018-02-22T18:48:01.124Z,9.10
2018-02-22T18:48:02.228Z,9.20
2018-02-22T18:48:02.771Z,9.20
2018-02-22T18:48:03.843Z,9.20
2018-02-22T18:48:04.961Z,9.20
2018-02-22T18:48:06.069Z,9.20
2018-02-22T18:48:07.150Z,9.10
2018-02-22T18:48:08.239Z,9.30
2018-02-22T18:48:08.783Z,9.30
2018-02-22T18:48:09.861Z,9.40
2018-02-22T18:48:10.916Z,9.60
2018-02-22T18:48:12.022Z,9.80
2018-02-22T18:48:13.084Z,9.80
2018-02-22T18:48:14.121Z,9.60
2018-02-22T18:48:15.209Z,9.70
2018-02-22T18:48:15.778Z,9.50
2018-02-22T18:48:16.863Z,9.70
2018-02-22T18:48:18.016Z,9.60
2018-02-22T18:48:19.071Z,9.70
2018-02-22T18:48:20.173Z,9.80
2018-02-22T18:48:20.731Z,9.90
2018-02-22T18:48:21.789Z,10.00
2018-02-22T18:48:22.837Z,10.10
2018-02-22T18:48:23.957Z,10.00
2018-02-22T18:48:24.967Z,10.00
2018-02-22T18:48:26.100Z,10.00
2018-02-22T18:48:27.262Z,10.30
2018-02-22T18:48:27.766Z,10.60
2018-02-22T18:48:28.799Z,10.50
2018-02-22T18:48:29.839Z,10.60
2018-02-22T18:48:30.973Z,10.70
2018-02-22T18:48:32.037Z,10.80
2018-02-22T18:48:33.067Z,10.70
2018-02-22T18:48:34.189Z,10.90
2018-02-22T18:48:34.724Z,11.20
2018-02-22T18:48:35.789Z,11.30
2018-02-22T18:48:36.822Z,11.20
2018-02-22T18:48:37.927Z,11.10
2018-02-22T18:48:39.055Z,11.10
2018-02-22T18:48:40.083Z,11.00
2018-02-22T18:48:41.207Z,10.60
2018-02-22T18:48:41.784Z,10.90
2018-02-22T18:48:42.808Z,10.80
2018-02-22T18:48:43.847Z,11.00
2018-02-22T18:48:44.979Z,11.00
2018-02-22T18:48:46.036Z,11.00
2018-02-22T18:48:47.129Z,10.80
2018-02-22T18:48:48.194Z,10.80
2018-02-22T18:48:48.721Z,10.70
2018-02-22T18:48:49.789Z,10.50
2018-02-22T18:48:50.877Z,10.50
2018-02-22T18:48:52.009Z,10.50
2018-02-22T18:48:53.049Z,10.70
2018-02-22T18:48:54.165Z,10.80
2018-02-22T18:48:55.233Z,10.80
2018-02-22T18:48:55.761Z,10.90
2018-02-22T18:48:56.799Z,10.60
2018-02-22T18:48:57.936Z,10.40
2018-02-22T18:48:59.004Z,10.40
2018-02-22T18:49:00.062Z,10.30
2018-02-22T18:49:01.214Z,10.30
2018-02-22T18:49:01.729Z,10.80
2018-02-22T18:49:02.764Z,10.80
2018-02-22T18:49:03.854Z,10.80
2018-02-22T18:49:04.902Z,10.60
2018-02-22T18:49:06.005Z,10.60
2018-02-22T18:49:07.041Z,10.70
2018-02-22T18:49:08.179Z,10.40
2018-02-22T18:49:09.243Z,10.30
2018-02-22T18:49:09.763Z,10.40
2018-02-22T18:49:10.894Z,10.30
2018-02-22T18:49:11.972Z,10.10
2018-02-22T18:49:12.997Z,10.10
2018-02-22T18:49:14.099Z,10.10
2018-02-22T18:49:15.212Z,10.20
2018-02-22T18:49:15.733Z,10.30
2018-02-22T18:49:16.800Z,10.30
2018-02-22T18:49:17.931Z,10.60
2018-02-22T18:49:18.980Z,10.70
2018-02-22T18:49:20.003Z,10.90
2018-02-22T18:49:21.041Z,10.90
2018-02-22T18:49:22.174Z,10.80
2018-02-22T18:49:23.229Z,11.20
2018-02-22T18:49:23.760Z,11.20
2018-02-22T18:49:24.888Z,11.20
2018-02-22T18:49:25.949Z,11.10
2018-02-22T18:49:27.049Z,11.20
2018-02-22T18:49:28.171Z,11.10
2018-02-22T18:49:29.229Z,11.20
2018-02-22T18:49:29.723Z,11.20
2018-02-22T18:49:30.812Z,11.20
2018-02-22T18:49:31.930Z,10.80
2018-02-22T18:49:32.959Z,10.80
2018-02-22T18:49:34.002Z,11.00
2018-02-22T18:49:35.125Z,10.90
2018-02-22T18:49:36.195Z,11.00
2018-02-22T18:49:37.306Z,10.90
2018-02-22T18:49:37.829Z,10.90
2018-02-22T18:49:38.929Z,10.80
2018-02-22T18:49:39.955Z,10.90
2018-02-22T18:49:41.052Z,11.00
2018-02-22T18:49:42.138Z,10.90
2018-02-22T18:49:43.220Z,11.00
2018-02-22T18:49:43.744Z,10.90
2018-02-22T18:49:44.900Z,10.80
2018-02-22T18:49:45.979Z,11.50
2018-02-22T18:49:47.155Z,11.40
2018-02-22T18:49:48.191Z,11.00
2018-02-22T18:49:49.221Z,11.00
2018-02-22T18:49:49.769Z,10.80
2018-02-22T18:49:50.899Z,10.90
2018-02-22T18:49:51.951Z,10.90
2018-02-22T18:49:53.043Z,10.60
2018-02-22T18:49:54.179Z,10.70
2018-02-22T18:49:55.247Z,10.80
2018-02-22T18:49:55.799Z,10.90
2018-02-22T18:49:56.880Z,11.00
2018-02-22T18:49:58.021Z,10.90
2018-02-22T18:49:59.091Z,10.70
2018-02-22T18:50:00.161Z,10.90
2018-02-22T18:50:01.234Z,10.90
2018-02-22T18:50:01.766Z,10.80
2018-02-22T18:50:02.802Z,10.80
2018-02-22T18:50:03.882Z,10.70
2018-02-22T18:50:04.922Z,10.70
2018-02-22T18:50:05.956Z,10.70
2018-02-22T18:50:07.061Z,10.90
2018-02-22T18:50:08.179Z,11.00
2018-02-22T18:50:09.201Z,11.00
2018-02-22T18:50:10.329Z,11.10
2018-02-22T18:50:10.909Z,11.20
2018-02-22T18:50:11.997Z,11.20
